Terminal Aerodrome Forecast
Issued by NWS

Home | Current Version | Previous Version | Graphics & Text | Print | Product List | Glossary On
Versions: 1 2 3 4 5 6 7 8 9 10 11 12 13 14 15 16 17 18 19 20 21 22
000
FTUS42 KMHX 182300 AAB
TAFISO
TAF AMD
KISO 182310Z 1823/1918 29006KT 1SM RA BKN008 BKN015 OVC020
     FM190200 20005KT P6SM VCSH SCT050 BKN100
     FM190500 21005KT 4SM BR SCT050 BKN100
     FM191300 26007KT P6SM SCT035 BKN120
      AMD LTD TO CLD VIS AND WIND=

USA.gov is the U.S. government's official web portal to all federal, state and local government web resources and services.